»·PEaware :: DAL1490 KOTH-KMSO

DAL1490 :: KOTH-KMSO

FLIGHT INFORMATION

Flight Status: Arrived
Operator:
Delta Air Lines
More flights by this operator :: More flights under this callsign
Pilot: Max W. (2591)
Aircraft: BOEING 737-800
(B738)
More flights by this aircraft type
Origin: KOTH North Bend Mun
United States
Destination: KMSO Missoula Intl
United States
More flights between these airports :: More routes between these airports
Route: OTH6 SCOTY MSO
File this flight plan on PilotEdge
Remarks:
Altitude:
(Current/Filed)
35,000ft
Speed:
(Current/Filed)
450kts
Departed: 05-May-18 08:09 PM
Arrived: 05-May-18 09:25 PM
Distance/Time
Traveled:
478nm/1:15
Distance/Time
To Go:
Arrived

Flight Plot

Page will automatically refresh every two minutes.

Flight plan parsing failed; only flown route is shown


Map Options




Map Legend


Flown Route
Filed Route
Departure Airport
Arrival Airport
Navaid (VOR, NDB)
Fix

Horizontal Profiles

Position Reports

Time Latitude Longitude Heading Altitude Ground
Speed
05-May-18 19:22 43.414572 -124.244930 239 16ft 0kts
05-May-18 19:23 43.414572 -124.244930 239 15ft 0kts
05-May-18 19:24 43.414572 -124.244930 239 15ft 0kts
05-May-18 19:25 43.414572 -124.244930 239 15ft 0kts
05-May-18 19:26 43.414572 -124.244930 239 15ft 0kts
05-May-18 19:27 43.414572 -124.244930 239 15ft 0kts
05-May-18 19:28 43.414572 -124.244930 239 15ft 0kts
05-May-18 19:29 43.414572 -124.244930 239 15ft 0kts
05-May-18 19:30 43.414572 -124.244930 239 15ft 0kts
05-May-18 19:31 43.414572 -124.244930 239 15ft 0kts
05-May-18 19:32 43.414572 -124.244930 239 15ft 0kts
05-May-18 19:33 43.414572 -124.244930 239 15ft 0kts
05-May-18 19:34 43.414572 -124.244930 239 15ft 0kts
05-May-18 19:35 43.414572 -124.244930 239 15ft 0kts
05-May-18 19:36 43.414572 -124.244930 239 15ft 0kts
05-May-18 19:37 43.414572 -124.244930 239 15ft 0kts
05-May-18 19:38 43.414572 -124.244930 239 15ft 0kts
05-May-18 19:39 43.414572 -124.244930 239 15ft 0kts
05-May-18 19:39 43.414572 -124.244930 239 15ft 0kts
05-May-18 19:40 43.414572 -124.244930 239 15ft 0kts
05-May-18 19:41 43.414572 -124.244930 239 15ft 0kts
05-May-18 19:42 43.414572 -124.244930 239 15ft 0kts
05-May-18 19:43 43.414572 -124.244930 239 15ft 0kts
05-May-18 19:45 43.414572 -124.244930 239 15ft 0kts
05-May-18 19:46 43.414572 -124.244930 239 15ft 0kts
05-May-18 19:46 43.414572 -124.244930 239 15ft 0kts
05-May-18 19:47 43.414572 -124.244930 239 15ft 0kts
05-May-18 19:48 43.414572 -124.244930 239 15ft 0kts
05-May-18 19:49 43.414572 -124.244930 239 15ft 0kts
05-May-18 19:50 43.414572 -124.244930 239 15ft 0kts
05-May-18 19:51 43.414572 -124.244930 239 15ft 0kts
05-May-18 19:52 43.414572 -124.244930 239 15ft 0kts
05-May-18 19:53 43.414572 -124.244930 239 15ft 0kts
05-May-18 19:54 43.414572 -124.244930 239 15ft 0kts
05-May-18 19:55 43.414572 -124.244930 239 15ft 0kts
05-May-18 19:56 43.414572 -124.244930 239 15ft 0kts
05-May-18 19:57 43.414572 -124.244930 239 15ft 0kts
05-May-18 19:58 43.414572 -124.244930 239 15ft 0kts
05-May-18 19:59 43.414922 -124.244117 239 15ft 2kts
05-May-18 20:00 43.415104 -124.243696 239 15ft 0kts
05-May-18 20:01 43.415102 -124.243703 239 15ft 0kts
05-May-18 20:02 43.415362 -124.244098 331 15ft 10kts
05-May-18 20:03 43.417842 -124.246056 328 15ft 7kts
05-May-18 20:04 43.419120 -124.246857 26 15ft 0kts
05-May-18 20:05 43.419145 -124.246834 35 15ft 0kts
05-May-18 20:06 43.419700 -124.246428 354 15ft 18kts
05-May-18 20:07 43.421709 -124.243559 235 15ft 0kts
05-May-18 20:08 43.410209 -124.271735 241 449ft 176kts
05-May-18 20:09 43.424931 -124.327705 350 2690ft 237kts
05-May-18 20:10 43.467745 -124.264188 95 5457ft 277kts
05-May-18 20:11 43.432530 -124.171518 96 8856ft 287kts
05-May-18 20:12 43.478364 -124.080246 41 11432ft 332kts
05-May-18 20:13 43.554167 -123.985414 46 12776ft 394kts
05-May-18 20:14 43.623628 -123.865707 61 15209ft 408kts
05-May-18 20:15 43.678762 -123.724588 63 17459ft 425kts
05-May-18 20:16 43.735734 -123.578298 63 19557ft 440kts
05-May-18 20:17 43.795211 -123.427522 63 21429ft 454kts
05-May-18 20:18 43.856640 -123.271707 63 23066ft 466kts
05-May-18 20:19 43.919124 -123.112009 63 24581ft 476kts
05-May-18 20:20 43.982643 -122.948652 63 25885ft 487kts
05-May-18 20:21 44.047350 -122.781215 62 27120ft 495kts
05-May-18 20:22 44.113435 -122.611231 62 28217ft 502kts
05-May-18 20:23 44.179008 -122.438732 64 29568ft 503kts
05-May-18 20:25 44.244115 -122.266146 65 30879ft 503kts
05-May-18 20:26 44.309132 -122.093410 65 32123ft 503kts
05-May-18 20:27 44.374098 -121.919933 66 33261ft 503kts
05-May-18 20:28 44.438604 -121.746781 66 34384ft 502kts
05-May-18 20:29 44.502840 -121.573174 66 35034ft 505kts
05-May-18 20:30 44.567077 -121.398526 65 35042ft 502kts
05-May-18 20:31 44.630778 -121.224162 65 35041ft 503kts
05-May-18 20:32 44.694417 -121.048986 64 35048ft 505kts
05-May-18 20:33 44.758038 -120.872369 66 35049ft 506kts
05-May-18 20:34 44.821843 -120.695643 65 35049ft 507kts
05-May-18 20:35 44.886654 -120.518439 65 35044ft 507kts
05-May-18 20:36 44.948422 -120.339650 66 35044ft 508kts
05-May-18 20:37 45.010731 -120.160955 65 35043ft 508kts
05-May-18 20:38 45.073258 -119.981185 66 35045ft 509kts
05-May-18 20:39 45.135790 -119.800727 65 35045ft 511kts
05-May-18 20:40 45.198147 -119.619824 65 35043ft 511kts
05-May-18 20:41 45.260352 -119.437690 65 35047ft 512kts
05-May-18 20:42 45.322156 -119.255671 65 35039ft 512kts
05-May-18 20:43 45.383789 -119.073389 65 35037ft 512kts
05-May-18 20:44 45.445286 -118.889699 65 35044ft 513kts
05-May-18 20:45 45.506307 -118.706225 65 35069ft 513kts
05-May-18 20:46 45.567358 -118.521662 64 35097ft 513kts
05-May-18 20:47 45.627862 -118.337114 65 35108ft 514kts
05-May-18 20:48 45.688587 -118.152546 64 35100ft 514kts
05-May-18 20:49 45.749405 -117.966956 61 35081ft 514kts
05-May-18 20:50 45.811060 -117.782474 62 35064ft 514kts
05-May-18 20:51 45.870178 -117.596097 67 35068ft 514kts
05-May-18 20:52 45.927358 -117.407518 66 35070ft 514kts
05-May-18 20:53 45.985637 -117.220108 65 35078ft 515kts
05-May-18 20:54 46.044535 -117.031363 64 35089ft 516kts
05-May-18 20:55 46.102713 -116.842601 65 35089ft 517kts
05-May-18 20:56 46.161564 -116.653691 64 35097ft 518kts
05-May-18 20:57 46.219235 -116.462645 65 35115ft 518kts
05-May-18 20:58 46.276634 -116.272400 65 35130ft 517kts
05-May-18 20:59 46.333899 -116.082029 64 35133ft 517kts
05-May-18 21:00 46.390865 -115.890223 66 35124ft 518kts
05-May-18 21:01 46.447547 -115.698836 65 34616ft 516kts
05-May-18 21:02 46.504072 -115.505912 66 31423ft 523kts
05-May-18 21:03 46.560074 -115.313479 66 28987ft 501kts
05-May-18 21:04 46.612686 -115.131360 66 27014ft 478kts
05-May-18 21:05 46.662634 -114.957292 67 24246ft 453kts
05-May-18 21:06 46.709720 -114.792125 67 21589ft 429kts
05-May-18 21:07 46.753705 -114.636865 66 19475ft 404kts
05-May-18 21:08 46.796992 -114.483700 67 18205ft 391kts
05-May-18 21:09 46.837272 -114.339958 67 16689ft 381kts
05-May-18 21:10 46.876544 -114.197783 67 14994ft 366kts
05-May-18 21:11 46.899878 -114.061183 108 13217ft 338kts
05-May-18 21:12 46.849287 -113.954038 126 11987ft 299kts
05-May-18 21:13 46.805333 -113.865233 136 11582ft 249kts
05-May-18 21:14 46.746711 -113.815468 169 9737ft 243kts
05-May-18 21:15 46.682904 -113.826236 203 8802ft 213kts
05-May-18 21:16 46.637958 -113.877500 229 8807ft 209kts
05-May-18 21:17 46.620269 -113.955671 287 8689ft 210kts
05-May-18 21:18 46.660670 -114.017120 316 8237ft 209kts
05-May-18 21:19 46.698599 -114.070334 313 7379ft 177kts
05-May-18 21:20 46.745103 -114.078585 9 6514ft 173kts
05-May-18 21:21 46.790967 -114.061122 27 5591ft 169kts
05-May-18 21:22 46.829137 -114.022642 31 4954ft 163kts
05-May-18 21:23 46.871896 -114.018891 330 4366ft 162kts
05-May-18 21:24 46.901932 -114.067519 311 3443ft 161kts
05-May-18 21:25 46.919833 -114.094502 113 3213ft 21kts
05-May-18 21:26 46.919187 -114.088714 43 3213ft 12kts
05-May-18 21:27 46.919222 -114.086882 82 3213ft 0kts
05-May-18 21:28 46.919222 -114.086880 82 3213ft 0kts
05-May-18 21:29 46.919222 -114.086879 82 3213ft 0kts
05-May-18 21:30 46.919223 -114.086877 82 3213ft 0kts
05-May-18 21:31 46.919223 -114.086875 82 3213ft 0kts

Navigation Log

Ident Type
Flight plan parsing failed, navigation log unavailable